AGROMETEOROLOŠKI PORTAL

vinorodna pokrajina

Temelj dobrega kmetovanja

Pregled podatkov za lokacijo Radlje DRSI, meteorološka postaja 15

Pregled senzorjev na lokaciji

ID Ime Zadnja
vrednost
Datum in čas
meritve
(lokalni čas)
Tip
senzorja
6167 Zračni tlak (hPa) 992 hPa 6.2.2023 01:00 DRSI
6164 Relativna zračna vlaga (2 m) (% RH) 85 % RH 6.2.2023 01:00 DRSI
6163 Temperatura (2 m) (°C) -5,5 °C 6.2.2023 01:00 DRSI
6166 Smer vetra (2 m) (°) 48 ° 6.2.2023 01:00 DRSI
6165 Hitrost vetra (2 m) (km/h) 2 km/h 6.2.2023 01:00 DRSI

Pregled podatkov zadnjih 24 ur

Zap.
št.
Datum in čas
(lokalni čas)
Radlje DRSI
Zračni
tlak
Relativna
zračna
vlaga
(2
m)
Temperatura
(2
m)
Smer
vetra
(2
m)
Hitrost
vetra
(2
m)
1 6.2.2023 01:00 991,9 85,3 -5,5 48,2 2,3
2 6.2.2023 00:30 991,2 84,7 -5,2 69,6 2,2
3 6.2.2023 00:00 991,2 82,7 -4,8 74,9 2
4 5.2.2023 23:30 991,2 82,7 -4,5 59 3,5
5 5.2.2023 23:00 991,2 81,3 -4,1 94,9 2,5
6 5.2.2023 22:30 990,3 80,3 -3,6 57 3,2
7 5.2.2023 22:00 990,3 81 -3,6 75,3 3,4
8 5.2.2023 21:30 990,3 82 -3,4 58,4 2,8
9 5.2.2023 21:00 990,3 80,7 -3 78 2,2
10 5.2.2023 20:30 990,3 81 -2,7 65 2,9
11 5.2.2023 20:00 989,6 80,3 -2,7 121,3 2,6
12 5.2.2023 19:30 989,3 79,3 -2,5 89 1,7
13 5.2.2023 19:00 989,3 76,3 -2 56,2 2,3
14 5.2.2023 18:30 989,3 74 -1,5 79,1 2,8
15 5.2.2023 18:00 989,3 73 -1,1 84 3,5
16 5.2.2023 17:30 988,7 69,3 -0,6 37,7 4,8
17 5.2.2023 17:00 988,3 64 0,4 38,4 3,8
18 5.2.2023 16:30 988,3 56,7 1,5 39,1 5,6
19 5.2.2023 16:00 988,3 54,7 2 9,9 8,4
20 5.2.2023 15:30 988,3 52,7 2,2 48,7 6,1
21 5.2.2023 15:00 988,3 53,3 2,1 47,7 7,9
22 5.2.2023 14:30 988,3 52 2,3 353,9 9
23 5.2.2023 14:00 988,3 51 2,9 160,9 4,9
24 5.2.2023 13:30 988,3 54 2,5 47,8 2,9
25 5.2.2023 13:00 988,3 54,7 2,6 86 2,9
26 5.2.2023 12:30 989,3 57,7 1,6 151,2 4,3
27 5.2.2023 12:00 989,3 59 1,5 102,7 3,7
28 5.2.2023 11:30 989,9 58,7 1,4 97,7 4,7
29 5.2.2023 11:00 990,3 57 1,9 124 1,8
30 5.2.2023 10:30 990,3 60,7 1,5 138,5 1,4
31 5.2.2023 10:00 990,3 72 0,4 159 2
32 5.2.2023 09:30 990,3 83,3 -1,8 102,4 4,4
33 5.2.2023 09:00 990,3 88,3 -3,5 127,3 2,5
34 5.2.2023 08:30 990,3 90 -4,2 66,8 3,1
35 5.2.2023 08:00 990,3 92 -4,7 84,4 3,2
36 5.2.2023 07:30 989,6 91,7 -4,9 75,4 2,2
37 5.2.2023 07:00 989,3 91,3 -4,4 166 1,9
38 5.2.2023 06:30 989,3 92 -4,3 301,7 3,2
39 5.2.2023 06:00 989,3 93 -4,4 104,3 3,5
40 5.2.2023 05:30 989 93 -4,3 117,6 2,2
41 5.2.2023 05:00 989,3 91,3 -4,5 223,2 1,4
42 5.2.2023 04:30 989 90,3 -4,4 200,3 1,6
43 5.2.2023 04:00 988,3 89 -4,1 147,5 1,7
44 5.2.2023 03:30 988,7 88,7 -4 171,9 1,6
45 5.2.2023 03:00 988,3 87,7 -3,4 277,9 1,7
46 5.2.2023 02:30 989 86 -2,7 156,9 2,8
47 5.2.2023 02:00 988,7 89 -3 75 2,6
48 5.2.2023 01:30 988,3 87,7 -2,4 107,2 1,8